Time,TemperatureF,DewpointF,PressureIn,WindDirection,WindDirectionDegrees,WindSpeedMPH,WindSpeedGustMPH,Humidity,HourlyPrecipIn,Conditions,Clouds,dailyrainin,SolarRadiationWatts/m^2,SoftwareType,DateUTC
2013-04-10 00:12:00,-6.0,-12.0,-100.00,WSW,240,0.0,3.0,74,0.00,,,0.00,0.000000,,2013-04-10 06:12:00,
2013-04-10 00:22:00,-6.0,-12.0,-100.00,WSW,240,0.0,3.0,74,0.00,,,0.00,0.000000,,2013-04-10 06:22:00,
2013-04-10 00:32:00,-6.0,-12.0,-100.00,WSW,240,0.0,3.0,74,0.00,,,0.00,0.000000,,2013-04-10 06:32:00,
2013-04-10 00:42:00,-6.0,-12.0,-100.00,WSW,240,0.0,3.0,74,0.00,,,0.00,0.000000,,2013-04-10 06:42:00,
2013-04-10 00:52:00,-7.0,-13.0,-100.00,ESE,110,2.0,4.0,75,0.00,,,0.00,0.000000,,2013-04-10 06:52:00,
2013-04-10 01:22:00,-7.0,-13.0,-100.00,ESE,110,2.0,4.0,75,0.00,,,0.00,0.000000,,2013-04-10 07:22:00,
2013-04-10 01:32:00,-7.0,-13.0,-100.00,ESE,110,2.0,4.0,75,0.00,,,0.00,0.000000,,2013-04-10 07:32:00,
2013-04-10 01:42:00,-7.0,-13.0,-100.00,ESE,110,2.0,4.0,75,0.00,,,0.00,0.000000,,2013-04-10 07:42:00,
2013-04-10 01:52:00,-4.0,-9.0,-100.00,WNW,288,2.0,3.0,77,0.00,,,0.00,0.000000,,2013-04-10 07:52:00,
2013-04-10 02:22:00,-4.0,-9.0,-100.00,WNW,288,2.0,3.0,77,0.00,,,0.00,0.000000,,2013-04-10 08:22:00,
2013-04-10 02:32:00,-4.0,-9.0,-100.00,WNW,288,2.0,3.0,77,0.00,,,0.00,0.000000,,2013-04-10 08:32:00,
2013-04-10 02:42:00,-4.0,-9.0,-100.00,WNW,288,2.0,3.0,77,0.00,,,0.00,0.000000,,2013-04-10 08:42:00,
2013-04-10 02:52:00,-1.0,-6.0,-100.00,WSW,255,5.0,6.0,78,0.00,,,0.00,0.000000,,2013-04-10 08:52:00,
2013-04-10 03:22:00,-1.0,-6.0,-100.00,WSW,255,5.0,6.0,78,0.00,,,0.00,0.000000,,2013-04-10 09:22:00,
2013-04-10 03:32:00,-1.0,-6.0,-100.00,WSW,255,5.0,6.0,78,0.00,,,0.00,0.000000,,2013-04-10 09:32:00,
2013-04-10 03:43:00,-1.0,-6.0,-100.00,WSW,255,5.0,6.0,78,0.00,,,0.00,0.000000,,2013-04-10 09:43:00,
2013-04-10 03:52:00,-1.0,-6.0,-100.00,WSW,254,4.0,9.0,77,0.00,,,0.00,0.000000,,2013-04-10 09:52:00,
2013-04-10 04:13:00,-1.0,-6.0,-100.00,WSW,254,4.0,9.0,77,0.00,,,0.00,0.000000,,2013-04-10 10:13:00,
2013-04-10 04:23:00,-1.0,-6.0,-100.00,WSW,254,4.0,9.0,77,0.00,,,0.00,0.000000,,2013-04-10 10:23:00,
2013-04-10 04:33:00,-1.0,-6.0,-100.00,WSW,254,4.0,9.0,77,0.00,,,0.00,0.000000,,2013-04-10 10:33:00,
2013-04-10 04:42:00,-1.0,-6.0,-100.00,WSW,254,4.0,9.0,77,0.00,,,0.00,0.000000,,2013-04-10 10:42:00,
2013-04-10 04:52:00,-1.0,-6.0,-100.00,West,266,8.0,12.0,78,0.00,,,0.00,0.000000,,2013-04-10 10:52:00,
2013-04-10 05:12:00,-1.0,-6.0,-100.00,West,266,8.0,12.0,78,0.00,,,0.00,0.000000,,2013-04-10 11:12:00,
2013-04-10 05:22:00,-1.0,-6.0,-100.00,West,266,8.0,12.0,78,0.00,,,0.00,0.000000,,2013-04-10 11:22:00,
2013-04-10 05:32:00,-1.0,-6.0,-100.00,West,266,8.0,12.0,78,0.00,,,0.00,0.000000,,2013-04-10 11:32:00,
2013-04-10 05:42:00,-1.0,-6.0,-100.00,West,266,8.0,12.0,78,0.00,,,0.00,0.000000,,2013-04-10 11:42:00,
2013-04-10 06:52:00,-1.0,-6.0,-100.00,West,264,9.0,13.0,78,-99.99,,,0.00,3.000000,,2013-04-10 12:52:00,
2013-04-10 07:32:00,-1.0,-6.0,-100.00,West,264,9.0,13.0,78,-99.99,,,0.00,3.000000,,2013-04-10 13:32:00,
2013-04-10 07:43:00,-1.0,-6.0,-100.00,West,264,9.0,13.0,78,-99.99,,,0.00,3.000000,,2013-04-10 13:43:00,
2013-04-10 07:52:00,2.0,-3.0,-100.00,West,270,10.0,17.0,78,0.00,,,0.00,53.000000,,2013-04-10 13:52:00,
2013-04-10 08:22:00,2.0,-3.0,-100.00,West,270,10.0,17.0,78,0.00,,,0.00,53.000000,,2013-04-10 14:22:00,
2013-04-10 08:33:00,2.0,-3.0,-100.00,West,270,10.0,17.0,78,0.00,,,0.00,53.000000,,2013-04-10 14:33:00,
2013-04-10 08:42:00,2.0,-3.0,-100.00,West,270,10.0,17.0,78,0.00,,,0.00,53.000000,,2013-04-10 14:42:00,
2013-04-10 09:52:00,11.0,3.0,-100.00,WSW,258,13.0,20.0,68,-99.99,,,0.00,633.000000,,2013-04-10 15:52:00,
2013-04-10 10:23:00,11.0,3.0,-100.00,WSW,258,13.0,20.0,68,-99.99,,,0.00,633.000000,,2013-04-10 16:23:00,
2013-04-10 10:33:00,11.0,3.0,-100.00,WSW,258,13.0,20.0,68,-99.99,,,0.00,633.000000,,2013-04-10 16:33:00,
2013-04-10 10:43:00,11.0,3.0,-100.00,WSW,258,13.0,20.0,68,-99.99,,,0.00,633.000000,,2013-04-10 16:43:00,
2013-04-10 10:52:00,15.0,6.0,-100.00,West,272,12.0,21.0,67,0.00,,,0.00,763.000000,,2013-04-10 16:52:00,
2013-04-10 11:12:00,15.0,6.0,-100.00,West,272,12.0,21.0,67,0.00,,,0.00,763.000000,,2013-04-10 17:12:00,
2013-04-10 11:22:00,15.0,6.0,-100.00,West,272,12.0,21.0,67,0.00,,,0.00,763.000000,,2013-04-10 17:22:00,
2013-04-10 11:33:00,15.0,6.0,-100.00,West,272,12.0,21.0,67,0.00,,,0.00,763.000000,,2013-04-10 17:33:00,
2013-04-10 11:43:00,15.0,6.0,-100.00,West,272,12.0,21.0,67,0.00,,,0.00,763.000000,,2013-04-10 17:43:00,
2013-04-10 11:52:00,17.0,7.0,-100.00,West,260,13.0,25.0,65,0.00,,,0.00,956.000000,,2013-04-10 17:52:00,
2013-04-10 12:12:00,17.0,7.0,-100.00,West,260,13.0,25.0,65,0.00,,,0.00,956.000000,,2013-04-10 18:12:00,
2013-04-10 12:23:00,17.0,7.0,-100.00,West,260,13.0,25.0,65,0.00,,,0.00,956.000000,,2013-04-10 18:23:00,
2013-04-10 12:33:00,17.0,7.0,-100.00,West,260,13.0,25.0,65,0.00,,,0.00,956.000000,,2013-04-10 18:33:00,
2013-04-10 12:42:00,17.0,7.0,-100.00,West,260,13.0,25.0,65,0.00,,,0.00,956.000000,,2013-04-10 18:42:00,
2013-04-10 12:52:00,21.0,10.0,-100.00,West,269,13.0,23.0,61,0.01,,,-99.99,1140.000000,,2013-04-10 18:52:00,
2013-04-10 13:22:00,21.0,10.0,-100.00,West,269,13.0,23.0,61,0.01,,,-99.99,1140.000000,,2013-04-10 19:22:00,
2013-04-10 13:33:00,21.0,10.0,-100.00,West,269,13.0,23.0,61,0.01,,,-99.99,1140.000000,,2013-04-10 19:33:00,
2013-04-10 13:42:00,21.0,10.0,-100.00,West,269,13.0,23.0,61,0.01,,,-99.99,1140.000000,,2013-04-10 19:42:00,
2013-04-10 13:52:00,22.0,10.0,-100.00,West,276,15.0,24.0,60,0.00,,,0.01,1151.000000,,2013-04-10 19:52:00,
2013-04-10 14:23:00,22.0,10.0,-100.00,West,276,15.0,24.0,60,0.00,,,0.01,1151.000000,,2013-04-10 20:23:00,
2013-04-10 14:33:00,22.0,10.0,-100.00,West,276,15.0,24.0,60,0.00,,,0.01,1151.000000,,2013-04-10 20:33:00,
2013-04-10 14:42:00,22.0,10.0,-100.00,West,276,15.0,24.0,60,0.00,,,0.01,1151.000000,,2013-04-10 20:42:00,
2013-04-10 14:52:00,24.0,11.0,-100.00,WNW,285,16.0,25.0,57,0.00,,,-99.99,1048.000000,,2013-04-10 20:52:00,
2013-04-10 15:22:00,24.0,11.0,-100.00,WNW,285,16.0,25.0,57,0.00,,,-99.99,1048.000000,,2013-04-10 21:22:00,
2013-04-10 15:33:00,24.0,11.0,-100.00,WNW,285,16.0,25.0,57,0.00,,,-99.99,1048.000000,,2013-04-10 21:33:00,
2013-04-10 15:43:00,24.0,11.0,-100.00,WNW,285,16.0,25.0,57,0.00,,,-99.99,1048.000000,,2013-04-10 21:43:00,
2013-04-10 15:52:00,22.0,10.0,-100.00,WNW,283,19.0,26.0,60,0.00,,,0.01,959.000000,,2013-04-10 21:52:00,
2013-04-10 16:23:00,22.0,10.0,-100.00,WNW,283,19.0,26.0,60,0.00,,,0.01,959.000000,,2013-04-10 22:23:00,
2013-04-10 16:33:00,22.0,10.0,-100.00,WNW,283,19.0,26.0,60,0.00,,,0.01,959.000000,,2013-04-10 22:33:00,
2013-04-10 16:42:00,22.0,10.0,-100.00,WNW,283,19.0,26.0,60,0.00,,,0.01,959.000000,,2013-04-10 22:42:00,
2013-04-10 16:52:00,24.0,9.0,-100.00,West,275,14.0,27.0,52,0.00,,,0.01,763.000000,,2013-04-10 22:52:00,
2013-04-10 17:22:00,24.0,9.0,-100.00,West,275,14.0,27.0,52,0.00,,,0.01,763.000000,,2013-04-10 23:22:00,
2013-04-10 17:33:00,24.0,9.0,-100.00,West,275,14.0,27.0,52,0.00,,,0.01,763.000000,,2013-04-10 23:33:00,
2013-04-10 17:42:00,24.0,9.0,-100.00,West,275,14.0,27.0,52,0.00,,,0.01,763.000000,,2013-04-10 23:42:00,
2013-04-10 17:52:00,21.0,4.0,-100.00,WNW,284,15.0,22.0,48,0.00,,,0.01,563.000000,,2013-04-10 23:52:00,
2013-04-10 18:22:00,21.0,4.0,-100.00,WNW,284,15.0,22.0,48,0.00,,,0.01,563.000000,,2013-04-11 00:22:00,
2013-04-10 18:32:00,21.0,4.0,-100.00,WNW,284,15.0,22.0,48,0.00,,,0.01,563.000000,,2013-04-11 00:32:00,
2013-04-10 18:42:00,21.0,4.0,-100.00,WNW,284,15.0,22.0,48,0.00,,,0.01,563.000000,,2013-04-11 00:42:00,
2013-04-10 18:52:00,20.0,8.0,-100.00,WNW,287,15.0,29.0,58,0.00,,,0.01,307.000000,,2013-04-11 00:52:00,
2013-04-10 19:22:00,20.0,8.0,-100.00,WNW,287,15.0,29.0,58,0.00,,,0.01,307.000000,,2013-04-11 01:22:00,
2013-04-10 19:32:00,20.0,8.0,-100.00,WNW,287,15.0,29.0,58,0.00,,,0.01,307.000000,,2013-04-11 01:32:00,
2013-04-10 19:42:00,20.0,8.0,-100.00,WNW,287,15.0,29.0,58,0.00,,,0.01,307.000000,,2013-04-11 01:42:00,
2013-04-10 19:52:00,17.0,8.0,-100.00,West,281,20.0,29.0,66,0.00,,,0.01,50.000000,,2013-04-11 01:52:00,
2013-04-10 20:12:00,17.0,8.0,-100.00,West,281,20.0,29.0,66,0.00,,,0.01,50.000000,,2013-04-11 02:12:00,
2013-04-10 20:22:00,17.0,8.0,-100.00,West,281,20.0,29.0,66,0.00,,,0.01,50.000000,,2013-04-11 02:22:00,
2013-04-10 20:32:00,17.0,8.0,-100.00,West,281,20.0,29.0,66,0.00,,,0.01,50.000000,,2013-04-11 02:32:00,
2013-04-10 20:42:00,17.0,8.0,-100.00,West,281,20.0,29.0,66,0.00,,,0.01,50.000000,,2013-04-11 02:42:00,
2013-04-10 20:52:00,16.0,8.0,-100.00,West,271,14.0,26.0,71,0.00,,,0.01,0.000000,,2013-04-11 02:52:00,
2013-04-10 21:22:00,16.0,8.0,-100.00,West,271,14.0,26.0,71,0.00,,,0.01,0.000000,,2013-04-11 03:22:00,
2013-04-10 21:33:00,16.0,8.0,-100.00,West,271,14.0,26.0,71,0.00,,,0.01,0.000000,,2013-04-11 03:33:00,
2013-04-10 21:43:00,16.0,8.0,-100.00,West,271,14.0,26.0,71,0.00,,,0.01,0.000000,,2013-04-11 03:43:00,
2013-04-10 21:52:00,14.0,6.0,-100.00,WSW,248,9.0,16.0,71,0.00,,,0.01,0.000000,,2013-04-11 03:52:00,
2013-04-10 22:22:00,14.0,6.0,-100.00,WSW,248,9.0,16.0,71,0.00,,,0.01,0.000000,,2013-04-11 04:22:00,
2013-04-10 22:33:00,14.0,6.0,-100.00,WSW,248,9.0,16.0,71,0.00,,,0.01,0.000000,,2013-04-11 04:33:00,
2013-04-10 22:42:00,14.0,6.0,-100.00,WSW,248,9.0,16.0,71,0.00,,,0.01,0.000000,,2013-04-11 04:42:00,
2013-04-10 22:52:00,16.0,11.0,-100.00,WSW,255,9.0,15.0,82,0.00,,,0.01,0.000000,,2013-04-11 04:52:00,
2013-04-10 23:22:00,16.0,11.0,-100.00,WSW,255,9.0,15.0,82,0.00,,,0.01,0.000000,,2013-04-11 05:22:00,
2013-04-10 23:32:00,16.0,11.0,-100.00,WSW,255,9.0,15.0,82,0.00,,,0.01,0.000000,,2013-04-11 05:32:00,
2013-04-10 23:42:00,16.0,11.0,-100.00,WSW,255,9.0,15.0,82,0.00,,,0.01,0.000000,,2013-04-11 05:42:00,
2013-04-10 23:52:00,18.0,15.0,-100.00,WSW,254,11.0,22.0,88,0.00,,,0.01,0.000000,,2013-04-11 05:52:00,